createdAt,value
2023-04-25T00:01:39.649Z,4.20
2023-04-25T00:04:09.362Z,4.13
2023-04-25T00:06:37.296Z,4.10
2023-04-25T00:09:08.465Z,4.23
2023-04-25T00:11:35.384Z,4.00
2023-04-25T00:14:03.462Z,3.70
2023-04-25T00:16:34.463Z,4.17
2023-04-25T00:19:04.009Z,3.80
2023-04-25T00:21:32.697Z,4.40
2023-04-25T00:24:00.218Z,4.23
2023-04-25T00:26:27.812Z,4.70
2023-04-25T00:28:54.532Z,4.40
2023-04-25T00:31:21.348Z,4.23
2023-04-25T00:33:49.451Z,3.60
2023-04-25T00:36:16.368Z,4.37
2023-04-25T00:38:43.282Z,3.93
2023-04-25T00:41:10.071Z,3.83
2023-04-25T00:43:38.422Z,3.80
2023-04-25T00:46:06.464Z,3.83
2023-04-25T00:48:33.239Z,4.07
2023-04-25T00:51:01.641Z,4.07
2023-04-25T00:53:30.279Z,4.10
2023-04-25T00:55:57.188Z,4.10
2023-04-25T00:58:24.211Z,3.80
2023-04-25T01:00:53.204Z,3.67
2023-04-25T01:03:23.728Z,3.93
2023-04-25T01:05:51.972Z,4.13
2023-04-25T01:08:18.753Z,3.83
2023-04-25T01:10:45.476Z,4.00
2023-04-25T01:13:12.325Z,3.93
2023-04-25T01:15:39.212Z,4.10
2023-04-25T01:18:06.919Z,4.13
2023-04-25T01:20:35.065Z,3.90
2023-04-25T01:23:03.492Z,3.77
2023-04-25T01:25:31.828Z,3.63
2023-04-25T01:27:59.789Z,4.00
2023-04-25T01:30:30.233Z,4.40
2023-04-25T01:32:57.987Z,4.80
2023-04-25T01:35:26.009Z,4.60
2023-04-25T01:37:54.367Z,4.97
2023-04-25T01:40:23.336Z,4.80
2023-04-25T01:42:51.227Z,5.23
2023-04-25T01:45:18.684Z,5.03
2023-04-25T01:47:49.917Z,5.20
2023-04-25T01:50:19.618Z,5.57
2023-04-25T01:52:46.552Z,6.03
2023-04-25T01:55:13.341Z,6.43
2023-04-25T01:57:40.660Z,6.17
2023-04-25T02:00:09.428Z,6.30
2023-04-25T02:02:36.562Z,7.00
2023-04-25T02:05:03.488Z,6.63
2023-04-25T02:07:30.493Z,6.87
2023-04-25T02:09:57.233Z,6.53
2023-04-25T02:12:24.142Z,6.53
2023-04-25T02:14:50.938Z,6.57
2023-04-25T02:17:17.705Z,6.70
2023-04-25T02:19:44.876Z,6.77
2023-04-25T02:22:11.796Z,7.30
2023-04-25T02:24:38.796Z,6.80
2023-04-25T02:27:05.733Z,7.10
2023-04-25T02:29:32.464Z,6.90
2023-04-25T02:31:59.222Z,6.70
2023-04-25T02:34:26.066Z,6.43
2023-04-25T02:36:52.873Z,7.00
2023-04-25T02:39:19.794Z,6.27
2023-04-25T02:41:46.526Z,6.70
2023-04-25T02:44:13.193Z,6.43
2023-04-25T02:46:40.076Z,6.20
2023-04-25T02:49:07.530Z,6.83
2023-04-25T02:51:34.440Z,5.73
2023-04-25T02:54:01.213Z,6.60
2023-04-25T02:56:27.998Z,6.43
2023-04-25T02:58:55.023Z,6.63
2023-04-25T03:01:22.207Z,5.57
2023-04-25T03:03:49.394Z,6.33
2023-04-25T03:06:16.996Z,6.40
2023-04-25T03:08:44.008Z,6.17
2023-04-25T03:11:11.488Z,5.80
2023-04-25T03:13:38.366Z,5.60
2023-04-25T03:16:05.552Z,6.00
2023-04-25T03:18:32.289Z,6.37
2023-04-25T03:20:59.170Z,6.20
2023-04-25T03:23:27.023Z,6.00
2023-04-25T03:25:53.798Z,5.50
2023-04-25T03:28:21.193Z,6.10
2023-04-25T03:30:47.952Z,5.43
2023-04-25T03:33:17.562Z,5.53
2023-04-25T03:35:44.322Z,5.87
2023-04-25T03:38:11.314Z,5.97
2023-04-25T03:40:38.082Z,6.37
2023-04-25T03:43:04.821Z,6.30
2023-04-25T03:45:32.908Z,5.77
2023-04-25T03:47:59.744Z,5.90
2023-04-25T03:50:26.527Z,5.93
2023-04-25T03:52:53.414Z,5.97
2023-04-25T03:55:20.256Z,6.10
2023-04-25T03:57:47.006Z,6.60
2023-04-25T04:00:14.468Z,5.90
2023-04-25T04:02:43.129Z,5.77
2023-04-25T04:05:11.703Z,6.10
2023-04-25T04:07:41.078Z,5.60
2023-04-25T04:10:08.829Z,5.47
2023-04-25T04:12:35.582Z,5.23
2023-04-25T04:15:04.720Z,5.30
2023-04-25T04:17:31.616Z,5.37
2023-04-25T04:19:58.514Z,5.13
2023-04-25T04:22:25.457Z,4.70
2023-04-25T04:24:52.409Z,4.93
2023-04-25T04:27:20.406Z,5.20
2023-04-25T04:29:47.736Z,4.87
2023-04-25T04:32:15.499Z,4.37
2023-04-25T04:34:42.316Z,4.70
2023-04-25T04:37:09.171Z,4.87
2023-04-25T04:39:36.136Z,5.13
2023-04-25T04:42:04.173Z,4.87
2023-04-25T04:44:33.609Z,5.50
2023-04-25T04:47:00.984Z,5.27
2023-04-25T04:49:27.782Z,5.17
2023-04-25T04:51:57.300Z,5.33
2023-04-25T04:54:25.872Z,6.00
2023-04-25T04:56:53.515Z,5.60
2023-04-25T04:59:20.747Z,5.60
2023-04-25T05:01:47.871Z,6.00
2023-04-25T05:04:14.765Z,6.50
2023-04-25T05:06:41.795Z,6.97
2023-04-25T05:09:08.685Z,8.07
2023-04-25T05:11:35.495Z,7.73
2023-04-25T05:14:02.222Z,8.03
2023-04-25T05:16:28.941Z,7.47
2023-04-25T05:18:56.076Z,6.90
2023-04-25T05:21:23.377Z,7.00
2023-04-25T05:23:50.697Z,7.00
2023-04-25T05:26:17.547Z,7.30
2023-04-25T05:28:44.324Z,7.40
2023-04-25T05:31:11.677Z,7.00
2023-04-25T05:33:38.578Z,7.83
2023-04-25T05:36:05.687Z,7.93
2023-04-25T05:38:34.620Z,8.10
2023-04-25T05:41:01.949Z,8.00
2023-04-25T05:43:28.676Z,7.90
2023-04-25T05:45:55.575Z,8.10
2023-04-25T05:48:22.376Z,9.30
2023-04-25T05:50:49.188Z,8.20
2023-04-25T05:53:15.974Z,9.47
2023-04-25T05:55:42.688Z,9.20
2023-04-25T05:58:09.452Z,8.70
2023-04-25T06:00:36.276Z,8.87
2023-04-25T06:03:03.507Z,8.50
2023-04-25T06:05:30.756Z,8.30
2023-04-25T06:07:57.686Z,8.23
2023-04-25T06:10:24.429Z,8.40
2023-04-25T06:12:51.170Z,8.33
2023-04-25T06:15:28.201Z,8.70
2023-04-25T06:17:56.273Z,9.23
2023-04-25T06:20:25.325Z,9.30
2023-04-25T06:22:52.910Z,9.67
2023-04-25T06:25:19.739Z,9.60
2023-04-25T06:27:47.113Z,8.90
2023-04-25T06:30:14.034Z,8.87
2023-04-25T06:32:41.087Z,8.90
2023-04-25T06:35:08.211Z,7.23
2023-04-25T06:37:34.945Z,8.17
2023-04-25T06:40:01.917Z,6.73
2023-04-25T06:42:28.682Z,7.37
2023-04-25T06:44:55.651Z,6.40
2023-04-25T06:47:22.471Z,6.27
2023-04-25T06:49:49.193Z,6.60
2023-04-25T06:52:15.993Z,5.80
2023-04-25T06:54:42.743Z,5.50
2023-04-25T06:57:09.462Z,5.17
2023-04-25T06:59:36.219Z,5.30
2023-04-25T07:02:03.316Z,4.60
2023-04-25T07:04:30.441Z,4.77
2023-04-25T07:06:57.427Z,5.07
2023-04-25T07:09:24.275Z,4.80
2023-04-25T07:11:51.062Z,3.90
2023-04-25T07:14:17.854Z,3.97
2023-04-25T07:16:44.668Z,4.43
2023-04-25T07:19:11.384Z,4.90
2023-04-25T07:21:38.179Z,4.37
2023-04-25T07:24:05.266Z,4.20
2023-04-25T07:26:31.973Z,3.90
2023-04-25T07:28:58.691Z,3.40
2023-04-25T07:31:25.655Z,3.28
2023-04-25T07:33:52.397Z,3.03
2023-04-25T07:36:19.304Z,2.88
2023-04-25T07:38:46.129Z,2.72
2023-04-25T07:41:13.019Z,2.80
2023-04-25T07:43:39.741Z,2.55
2023-04-25T07:46:06.522Z,3.30
2023-04-25T07:48:33.278Z,2.88
2023-04-25T07:50:59.998Z,2.60
2023-04-25T07:53:26.882Z,2.72
2023-04-25T07:55:53.752Z,3.10
2023-04-25T07:58:22.854Z,2.70
2023-04-25T08:00:50.057Z,2.38
2023-04-25T08:03:17.055Z,2.58
2023-04-25T08:05:44.469Z,2.45
2023-04-25T08:08:11.498Z,2.17
2023-04-25T08:10:38.270Z,2.40
2023-04-25T08:13:05.034Z,2.10
2023-04-25T08:15:31.767Z,2.70
2023-04-25T08:17:58.567Z,1.95
2023-04-25T08:20:26.112Z,2.25
2023-04-25T08:22:52.891Z,1.90
2023-04-25T08:25:19.713Z,2.03
2023-04-25T08:27:46.483Z,2.50
2023-04-25T08:30:13.729Z,1.77
2023-04-25T08:32:40.553Z,2.28
2023-04-25T08:35:07.909Z,2.05
2023-04-25T08:37:34.612Z,2.40
2023-04-25T08:40:01.367Z,1.90
2023-04-25T08:42:29.910Z,1.98
2023-04-25T08:44:57.242Z,2.05
2023-04-25T08:47:24.920Z,2.20
2023-04-25T08:49:54.565Z,1.92
2023-04-25T08:52:25.660Z,1.88
2023-04-25T08:54:53.763Z,1.65
2023-04-25T08:57:21.844Z,2.10
2023-04-25T08:59:49.960Z,1.40
2023-04-25T09:02:19.043Z,1.50
2023-04-25T09:04:46.362Z,2.00
2023-04-25T09:07:13.286Z,1.90
2023-04-25T09:09:40.913Z,1.50
2023-04-25T09:12:07.883Z,2.00
2023-04-25T09:14:34.603Z,1.98
2023-04-25T09:17:03.570Z,1.70
2023-04-25T09:19:40.347Z,1.80
2023-04-25T09:22:08.895Z,1.90
2023-04-25T09:24:44.582Z,1.88
2023-04-25T09:27:12.847Z,2.00
2023-04-25T09:29:41.818Z,2.47
2023-04-25T09:32:25.706Z,2.50
2023-04-25T09:34:57.081Z,2.70
2023-04-25T09:37:28.660Z,2.63
2023-04-25T09:39:57.667Z,2.45
2023-04-25T09:42:26.314Z,2.20
2023-04-25T09:44:55.440Z,2.00
2023-04-25T09:47:24.810Z,2.10
2023-04-25T09:49:53.001Z,1.83
2023-04-25T09:52:25.879Z,1.70
2023-04-25T09:54:53.683Z,1.73
2023-04-25T09:57:23.289Z,1.70
2023-04-25T09:59:52.562Z,1.80
2023-04-25T10:02:21.612Z,1.52
2023-04-25T10:04:53.885Z,1.40
2023-04-25T10:07:27.316Z,1.33
2023-04-25T10:10:05.467Z,1.63
2023-04-25T10:12:34.482Z,1.20
2023-04-25T10:15:02.482Z,1.08
2023-04-25T10:17:29.581Z,1.20
2023-04-25T10:19:57.362Z,1.15
2023-04-25T10:22:47.018Z,1.20
2023-04-25T10:25:14.593Z,1.40
2023-04-25T10:27:41.339Z,1.25
2023-04-25T10:30:16.320Z,1.20
2023-04-25T10:32:44.016Z,0.90
2023-04-25T10:35:16.464Z,0.80
2023-04-25T10:38:05.384Z,1.90
2023-04-25T10:40:33.457Z,1.10
2023-04-25T10:43:38.367Z,1.08
2023-04-25T10:46:24.836Z,0.85
2023-04-25T10:48:56.828Z,0.90
2023-04-25T10:51:30.757Z,1.20
2023-04-25T10:54:04.856Z,1.30
2023-04-25T10:56:33.222Z,1.33
2023-04-25T10:59:07.805Z,1.02
2023-04-25T11:01:48.723Z,1.00
2023-04-25T11:04:32.598Z,0.93
2023-04-25T11:07:07.996Z,1.10
2023-04-25T11:09:36.901Z,1.10
2023-04-25T11:12:03.806Z,1.00
2023-04-25T11:14:30.700Z,1.33
2023-04-25T11:17:01.945Z,1.30
2023-04-25T11:19:31.328Z,1.40
2023-04-25T11:21:59.749Z,1.75
2023-04-25T11:24:37.417Z,2.42
2023-04-25T11:27:05.557Z,1.35
2023-04-25T11:29:34.137Z,1.40
2023-04-25T11:32:02.183Z,1.55
2023-04-25T11:34:33.958Z,1.52
2023-04-25T11:37:02.985Z,1.63
2023-04-25T11:39:30.455Z,2.30
2023-04-25T11:41:57.501Z,2.08
2023-04-25T11:44:24.705Z,2.05
2023-04-25T11:46:51.492Z,1.85
2023-04-25T11:49:22.165Z,1.55
2023-04-25T11:51:49.911Z,1.23
2023-04-25T11:54:16.883Z,1.55
2023-04-25T11:56:44.748Z,1.20
2023-04-25T11:59:12.662Z,1.90
2023-04-25T12:01:42.145Z,1.98
2023-04-25T12:04:19.663Z,1.65
2023-04-25T12:06:49.115Z,1.52
2023-04-25T12:09:29.596Z,1.75
2023-04-25T12:11:58.994Z,2.65
2023-04-25T12:14:27.973Z,2.03
2023-04-25T12:17:01.178Z,2.60
2023-04-25T12:19:36.958Z,2.55
2023-04-25T12:22:04.528Z,2.65
2023-04-25T12:24:38.393Z,1.42
2023-04-25T12:27:09.431Z,2.03
2023-04-25T12:29:48.580Z,2.22
2023-04-25T12:32:16.256Z,2.05
2023-04-25T12:34:43.133Z,2.00
2023-04-25T12:37:10.174Z,1.92
2023-04-25T12:39:36.962Z,2.30
2023-04-25T12:42:06.114Z,1.90
2023-04-25T12:44:35.187Z,2.10
2023-04-25T12:47:02.243Z,2.10
2023-04-25T12:49:29.133Z,2.25
2023-04-25T12:51:55.984Z,2.03
2023-04-25T12:54:22.774Z,2.00
2023-04-25T12:56:49.693Z,1.77
2023-04-25T12:59:16.504Z,2.10
2023-04-25T13:01:43.957Z,2.05
2023-04-25T13:04:10.972Z,1.67
2023-04-25T13:06:37.887Z,1.90
2023-04-25T13:09:04.783Z,1.80
2023-04-25T13:11:31.857Z,2.10
2023-04-25T13:13:58.835Z,1.95
2023-04-25T13:16:26.015Z,1.92
2023-04-25T13:18:52.841Z,2.17
2023-04-25T13:21:19.572Z,2.17
2023-04-25T13:23:47.718Z,2.53
2023-04-25T13:26:14.735Z,2.25
2023-04-25T13:28:43.551Z,2.03
2023-04-25T13:31:11.848Z,2.58
2023-04-25T13:33:39.262Z,1.80
2023-04-25T13:36:06.543Z,2.22
2023-04-25T13:38:33.539Z,2.00
2023-04-25T13:41:00.595Z,1.90
2023-04-25T13:43:27.317Z,2.00
2023-04-25T13:45:54.130Z,2.07
2023-04-25T13:48:21.146Z,1.97
2023-04-25T13:50:48.262Z,2.00
2023-04-25T13:53:15.269Z,2.07
2023-04-25T13:55:42.016Z,1.80
2023-04-25T13:58:09.166Z,1.93
2023-04-25T14:00:40.697Z,1.50
2023-04-25T14:03:10.621Z,2.03
2023-04-25T14:05:41.212Z,1.60
2023-04-25T14:08:09.599Z,2.10
2023-04-25T14:10:37.418Z,2.00
2023-04-25T14:13:06.693Z,2.00
2023-04-25T14:15:35.146Z,2.20
2023-04-25T14:18:02.563Z,2.10
2023-04-25T14:20:29.911Z,2.07
2023-04-25T14:22:58.136Z,2.30
2023-04-25T14:25:25.586Z,2.00
2023-04-25T14:27:52.451Z,2.00
2023-04-25T14:30:20.936Z,2.20
2023-04-25T14:32:49.583Z,2.10
2023-04-25T14:35:16.871Z,1.85
2023-04-25T14:37:43.687Z,1.92
2023-04-25T14:40:11.861Z,1.63
2023-04-25T14:42:38.793Z,1.65
2023-04-25T14:45:08.282Z,1.85
2023-04-25T14:47:36.743Z,1.87
2023-04-25T14:50:03.928Z,1.90
2023-04-25T14:52:30.692Z,1.93
2023-04-25T14:54:57.504Z,1.80
2023-04-25T14:57:24.202Z,1.93
2023-04-25T14:59:51.991Z,2.50
2023-04-25T15:02:18.879Z,2.20
2023-04-25T15:04:46.096Z,1.93
2023-04-25T15:07:12.902Z,2.57
2023-04-25T15:09:39.603Z,1.93
2023-04-25T15:12:06.626Z,2.13
2023-04-25T15:14:34.927Z,2.30
2023-04-25T15:17:02.223Z,2.30
2023-04-25T15:19:29.269Z,2.13
2023-04-25T15:21:56.397Z,2.20
2023-04-25T15:24:23.203Z,2.43
2023-04-25T15:26:49.993Z,3.30
2023-04-25T15:29:17.571Z,4.63
2023-04-25T15:31:45.184Z,4.30
2023-04-25T15:34:12.208Z,4.13
2023-04-25T15:36:38.962Z,3.40
2023-04-25T15:39:05.829Z,2.77
2023-04-25T15:41:32.575Z,2.97
2023-04-25T15:44:01.944Z,2.50
2023-04-25T15:46:31.272Z,2.50
2023-04-25T15:48:58.240Z,2.40
2023-04-25T15:51:25.119Z,2.07
2023-04-25T15:53:52.091Z,2.53
2023-04-25T15:56:18.966Z,2.60
2023-04-25T15:58:45.714Z,2.53
2023-04-25T16:01:12.475Z,2.80
2023-04-25T16:03:39.699Z,2.20
2023-04-25T16:06:06.851Z,2.30
2023-04-25T16:08:35.867Z,3.37
2023-04-25T16:11:03.364Z,3.40
2023-04-25T16:13:30.314Z,3.03
2023-04-25T16:15:57.693Z,4.10
2023-04-25T16:18:24.661Z,4.70
2023-04-25T16:20:51.548Z,3.37
2023-04-25T16:23:19.052Z,4.40
2023-04-25T16:25:46.846Z,3.50
2023-04-25T16:28:13.576Z,3.40
2023-04-25T16:30:40.490Z,2.93
2023-04-25T16:33:08.477Z,3.73
2023-04-25T16:35:36.645Z,2.87
2023-04-25T16:38:04.401Z,2.93
2023-04-25T16:40:31.230Z,2.83
2023-04-25T16:42:57.966Z,2.70
2023-04-25T16:45:26.215Z,3.03
2023-04-25T16:47:53.389Z,3.27
2023-04-25T16:50:20.702Z,3.03
2023-04-25T16:52:47.567Z,5.90
2023-04-25T16:55:14.387Z,4.93
2023-04-25T16:57:41.312Z,3.00
2023-04-25T17:00:09.852Z,3.00
2023-04-25T17:02:36.869Z,2.90
2023-04-25T17:05:03.930Z,3.10
2023-04-25T17:07:31.186Z,2.70
2023-04-25T17:09:57.982Z,2.70
2023-04-25T17:12:25.491Z,2.77
2023-04-25T17:14:52.516Z,2.73
2023-04-25T17:17:19.244Z,2.17
2023-04-25T17:19:46.640Z,2.30
2023-04-25T17:22:13.536Z,2.20
2023-04-25T17:24:40.781Z,2.60
2023-04-25T17:27:07.658Z,2.60
2023-04-25T17:29:35.195Z,2.40
2023-04-25T17:32:02.131Z,3.20
2023-04-25T17:34:29.124Z,2.90
2023-04-25T17:36:55.953Z,3.30
2023-04-25T17:39:22.719Z,3.87
2023-04-25T17:41:49.458Z,4.00
2023-04-25T17:44:16.208Z,3.37
2023-04-25T17:46:43.000Z,2.90
2023-04-25T17:49:09.954Z,3.63
2023-04-25T17:51:37.416Z,4.27
2023-04-25T17:54:04.212Z,3.63
2023-04-25T17:56:31.222Z,3.60
2023-04-25T17:58:58.160Z,4.00
2023-04-25T18:01:24.920Z,3.60
2023-04-25T18:03:52.209Z,4.73
2023-04-25T18:06:19.307Z,4.07
2023-04-25T18:08:47.266Z,3.70
2023-04-25T18:11:14.360Z,2.97
2023-04-25T18:13:41.497Z,3.53
2023-04-25T18:16:08.872Z,3.07
2023-04-25T18:18:36.873Z,3.90
2023-04-25T18:21:05.763Z,3.70
2023-04-25T18:23:34.229Z,3.80
2023-04-25T18:26:02.349Z,3.83
2023-04-25T18:28:29.451Z,5.33
2023-04-25T18:30:56.918Z,20.40
2023-04-25T18:33:23.934Z,8.90
2023-04-25T18:35:58.197Z,3.23
2023-04-25T18:41:08.366Z,3.40
2023-04-25T18:43:44.424Z,3.37
2023-04-25T18:46:11.354Z,3.07
2023-04-25T18:48:38.238Z,2.80
2023-04-25T18:51:05.682Z,3.07
2023-04-25T18:53:32.728Z,2.90
2023-04-25T18:55:59.477Z,3.23
2023-04-25T18:58:26.375Z,3.10
2023-04-25T19:00:53.636Z,2.80
2023-04-25T19:03:21.315Z,2.83
2023-04-25T19:05:48.173Z,2.40
2023-04-25T19:08:14.854Z,2.73
2023-04-25T19:10:41.661Z,2.80
2023-04-25T19:13:08.641Z,2.30
2023-04-25T19:15:35.786Z,2.77
2023-04-25T19:18:02.808Z,2.53
2023-04-25T19:20:29.599Z,2.40
2023-04-25T19:22:56.846Z,2.50
2023-04-25T19:25:24.966Z,3.37
2023-04-25T19:27:52.205Z,3.00
2023-04-25T19:30:19.481Z,2.80
2023-04-25T19:32:46.409Z,2.70
2023-04-25T19:35:13.495Z,3.10
2023-04-25T19:37:46.186Z,2.87
2023-04-25T19:40:14.782Z,3.10
2023-04-25T19:42:41.694Z,2.37
2023-04-25T19:45:09.216Z,3.23
2023-04-25T19:47:39.355Z,3.57
2023-04-25T19:50:08.640Z,3.13
2023-04-25T19:52:36.256Z,2.73
2023-04-25T19:55:04.966Z,3.57
2023-04-25T19:57:37.613Z,3.17
2023-04-25T20:00:14.379Z,3.33
2023-04-25T20:02:42.171Z,2.80
2023-04-25T20:05:09.539Z,3.10
2023-04-25T20:07:36.366Z,3.00
2023-04-25T20:10:06.545Z,2.50
2023-04-25T20:12:34.534Z,2.53
2023-04-25T20:15:01.692Z,2.80
2023-04-25T20:17:28.497Z,2.93
2023-04-25T20:19:56.243Z,2.70
2023-04-25T20:22:23.023Z,2.67
2023-04-25T20:24:49.761Z,3.10
2023-04-25T20:27:16.464Z,3.20
2023-04-25T20:29:43.135Z,3.00
2023-04-25T20:32:09.970Z,3.23
2023-04-25T20:34:37.198Z,2.80
2023-04-25T20:37:05.979Z,3.73
2023-04-25T20:39:33.494Z,3.30
2023-04-25T20:42:00.355Z,3.37
2023-04-25T20:44:27.103Z,3.27
2023-04-25T20:46:53.885Z,3.40
2023-04-25T20:49:20.876Z,3.23
2023-04-25T20:51:47.697Z,3.53
2023-04-25T20:54:14.486Z,3.27
2023-04-25T20:56:41.440Z,3.50
2023-04-25T20:59:09.173Z,2.80
2023-04-25T21:01:36.051Z,3.23
2023-04-25T21:04:03.035Z,3.77
2023-04-25T21:06:29.908Z,3.07
2023-04-25T21:08:56.611Z,2.80
2023-04-25T21:11:23.612Z,2.60
2023-04-25T21:13:50.806Z,3.00
2023-04-25T21:16:17.646Z,2.83
2023-04-25T21:18:44.597Z,2.73
2023-04-25T21:21:11.448Z,2.87
2023-04-25T21:23:38.260Z,3.37
2023-04-25T21:26:05.635Z,3.37
2023-04-25T21:28:32.467Z,3.60
2023-04-25T21:30:59.385Z,3.60
2023-04-25T21:33:26.142Z,4.03
2023-04-25T21:35:52.863Z,3.73
2023-04-25T21:38:19.632Z,3.80
2023-04-25T21:40:46.383Z,3.80
2023-04-25T21:43:13.151Z,3.50
2023-04-25T21:45:56.987Z,3.87
2023-04-25T21:48:26.703Z,3.90
2023-04-25T21:50:53.674Z,3.97
2023-04-25T21:53:21.015Z,4.00
2023-04-25T21:55:47.716Z,3.70
2023-04-25T21:58:14.552Z,3.73
2023-04-25T22:00:42.851Z,4.03
2023-04-25T22:03:09.940Z,3.80
2023-04-25T22:05:37.126Z,3.40
2023-04-25T22:08:04.074Z,3.47
2023-04-25T22:10:31.445Z,3.50
2023-04-25T22:12:58.404Z,3.60
2023-04-25T22:15:25.568Z,3.57
2023-04-25T22:17:55.469Z,3.47
2023-04-25T22:20:26.161Z,3.23
2023-04-25T22:22:54.613Z,4.20
2023-04-25T22:25:22.099Z,4.30
2023-04-25T22:27:49.439Z,3.63
2023-04-25T22:30:16.332Z,4.10
2023-04-25T22:32:43.408Z,4.40
2023-04-25T22:35:10.651Z,4.17
2023-04-25T22:37:37.773Z,4.70
2023-04-25T22:40:09.134Z,3.67
2023-04-25T22:42:40.284Z,3.70
2023-04-25T22:45:08.318Z,4.13
2023-04-25T22:47:36.407Z,3.37
2023-04-25T22:50:06.425Z,3.97
2023-04-25T22:52:34.655Z,3.20
2023-04-25T22:55:03.075Z,3.53
2023-04-25T22:57:30.369Z,3.37
2023-04-25T22:59:57.570Z,4.20
2023-04-25T23:02:25.813Z,4.17
2023-04-25T23:04:53.621Z,4.67
2023-04-25T23:07:20.854Z,3.97
2023-04-25T23:09:47.606Z,4.20
2023-04-25T23:12:18.086Z,4.07
2023-04-25T23:14:49.065Z,4.03
2023-04-25T23:17:16.151Z,3.97
2023-04-25T23:19:43.036Z,3.50
2023-04-25T23:22:10.001Z,3.60
2023-04-25T23:24:40.598Z,3.60
2023-04-25T23:27:07.633Z,3.70
2023-04-25T23:29:34.778Z,3.83
2023-04-25T23:32:01.672Z,3.77
2023-04-25T23:34:32.478Z,3.70
2023-04-25T23:37:04.416Z,3.97
2023-04-25T23:39:31.651Z,3.53
2023-04-25T23:41:58.348Z,3.83
2023-04-25T23:44:25.124Z,3.70
2023-04-25T23:46:53.574Z,4.20
2023-04-25T23:49:21.056Z,3.90
2023-04-25T23:51:47.873Z,3.90
2023-04-25T23:54:15.409Z,4.37
2023-04-25T23:56:42.210Z,3.50
2023-04-25T23:59:09.146Z,3.53
